sensor_id;sensor_type;location;lat;lon;timestamp;pressure;altitude;pressure_sealevel;temperature;humidity
58843;BME280;44614;54.356;10.100;2023-02-18T00:01:22;101144.09;;;5.18;97.31
58843;BME280;44614;54.356;10.100;2023-02-18T00:03:48;101143.09;;;5.19;96.94
58843;BME280;44614;54.356;10.100;2023-02-18T00:06:23;101147.69;;;5.19;97.57
58843;BME280;44614;54.356;10.100;2023-02-18T00:08:49;101152.28;;;5.18;97.38
58843;BME280;44614;54.356;10.100;2023-02-18T00:11:15;101144.31;;;5.17;97.02
58843;BME280;44614;54.356;10.100;2023-02-18T00:13:41;101134.97;;;5.11;97.54
58843;BME280;44614;54.356;10.100;2023-02-18T00:16:09;101105.31;;;4.93;97.08
58843;BME280;44614;54.356;10.100;2023-02-18T00:18:35;101139.50;;;5.19;96.23
58843;BME280;44614;54.356;10.100;2023-02-18T00:21:03;101139.34;;;5.20;96.95
58843;BME280;44614;54.356;10.100;2023-02-18T00:23:28;101124.81;;;5.05;97.07
58843;BME280;44614;54.356;10.100;2023-02-18T00:28:25;101140.75;;;5.16;96.76
58843;BME280;44614;54.356;10.100;2023-02-18T00:30:50;101138.72;;;5.10;96.83
58843;BME280;44614;54.356;10.100;2023-02-18T00:33:16;101154.00;;;5.19;98.07
58843;BME280;44614;54.356;10.100;2023-02-18T00:35:41;101151.44;;;5.18;98.31
58843;BME280;44614;54.356;10.100;2023-02-18T00:38:06;101182.56;;;5.15;98.02
58843;BME280;44614;54.356;10.100;2023-02-18T00:40:32;101150.69;;;5.01;98.82
58843;BME280;44614;54.356;10.100;2023-02-18T00:42:58;101168.13;;;5.14;98.98
58843;BME280;44614;54.356;10.100;2023-02-18T00:45:23;101166.44;;;5.13;98.32
58843;BME280;44614;54.356;10.100;2023-02-18T00:47:49;101162.03;;;5.12;98.40
58843;BME280;44614;54.356;10.100;2023-02-18T00:50:14;101165.59;;;5.13;98.46
58843;BME280;44614;54.356;10.100;2023-02-18T00:52:39;101155.41;;;5.07;98.95
58843;BME280;44614;54.356;10.100;2023-02-18T00:55:05;101161.34;;;5.10;98.27
58843;BME280;44614;54.356;10.100;2023-02-18T00:57:30;101160.50;;;5.10;98.12
58843;BME280;44614;54.356;10.100;2023-02-18T00:59:55;101153.38;;;5.09;97.18
58843;BME280;44614;54.356;10.100;2023-02-18T01:02:21;101155.41;;;5.07;97.65
58843;BME280;44614;54.356;10.100;2023-02-18T01:04:46;101140.78;;;5.08;97.28
58843;BME280;44614;54.356;10.100;2023-02-18T01:07:11;101146.72;;;5.11;97.67
58843;BME280;44614;54.356;10.100;2023-02-18T01:09:36;101150.94;;;5.14;96.26
58843;BME280;44614;54.356;10.100;2023-02-18T01:12:02;101136.91;;;5.02;96.88
58843;BME280;44614;54.356;10.100;2023-02-18T01:14:27;101141.31;;;5.03;95.70
58843;BME280;44614;54.356;10.100;2023-02-18T01:16:52;101125.22;;;4.94;95.30
58843;BME280;44614;54.356;10.100;2023-02-18T01:19:18;101150.09;;;5.13;96.08
58843;BME280;44614;54.356;10.100;2023-02-18T01:21:43;101155.75;;;5.12;96.60
58843;BME280;44614;54.356;10.100;2023-02-18T01:24:09;101164.56;;;5.14;95.70
58843;BME280;44614;54.356;10.100;2023-02-18T01:26:34;101145.50;;;5.14;96.47
58843;BME280;44614;54.356;10.100;2023-02-18T01:28:59;101150.66;;;5.09;95.24
58843;BME280;44614;54.356;10.100;2023-02-18T01:31:24;101155.91;;;5.10;95.35
58843;BME280;44614;54.356;10.100;2023-02-18T01:33:50;101151.28;;;5.11;95.95
58843;BME280;44614;54.356;10.100;2023-02-18T01:36:17;101154.69;;;5.13;95.32
58843;BME280;44614;54.356;10.100;2023-02-18T01:38:43;101154.22;;;5.09;96.03
58843;BME280;44614;54.356;10.100;2023-02-18T01:41:08;101132.41;;;4.86;96.37
58843;BME280;44614;54.356;10.100;2023-02-18T01:43:34;101162.19;;;5.11;96.32
58843;BME280;44614;54.356;10.100;2023-02-18T01:48:32;101148.78;;;5.09;96.62
58843;BME280;44614;54.356;10.100;2023-02-18T01:51:21;101101.19;;;4.74;96.67
58843;BME280;44614;54.356;10.100;2023-02-18T01:53:55;101161.34;;;5.10;97.45
58843;BME280;44614;54.356;10.100;2023-02-18T01:56:27;101148.09;;;5.07;97.72
58843;BME280;44614;54.356;10.100;2023-02-18T01:58:55;101151.28;;;5.11;97.29
58843;BME280;44614;54.356;10.100;2023-02-18T02:01:22;101128.88;;;5.09;97.53
58843;BME280;44614;54.356;10.100;2023-02-18T02:03:48;101148.09;;;5.07;97.59
58843;BME280;44614;54.356;10.100;2023-02-18T02:06:17;101153.84;;;5.12;97.84
58843;BME280;44614;54.356;10.100;2023-02-18T02:08:44;101158.25;;;5.13;97.68
58843;BME280;44614;54.356;10.100;2023-02-18T02:14:36;101143.47;;;5.16;97.44
58843;BME280;44614;54.356;10.100;2023-02-18T02:17:07;101108.00;;;5.01;97.57
58843;BME280;44614;54.356;10.100;2023-02-18T02:20:44;101137.16;;;5.16;98.07
58843;BME280;44614;54.356;10.100;2023-02-18T02:28:26;101131.88;;;5.14;98.70
58843;BME280;44614;54.356;10.100;2023-02-18T02:31:16;101140.06;;;5.14;99.24
58843;BME280;44614;54.356;10.100;2023-02-18T02:36:50;101140.91;;;5.14;99.81
58843;BME280;44614;54.356;10.100;2023-02-18T02:39:33;101131.72;;;5.16;100.00
58843;BME280;44614;54.356;10.100;2023-02-18T02:42:10;101129.16;;;5.14;100.00
58843;BME280;44614;54.356;10.100;2023-02-18T02:44:47;101141.09;;;5.13;100.00
58843;BME280;44614;54.356;10.100;2023-02-18T02:47:20;101116.78;;;5.11;99.94
58843;BME280;44614;54.356;10.100;2023-02-18T02:50:19;101133.97;;;5.12;100.00
58843;BME280;44614;54.356;10.100;2023-02-18T02:52:52;101127.84;;;5.10;100.00
58843;BME280;44614;54.356;10.100;2023-02-18T02:55:19;101131.59;;;5.09;100.00
58843;BME280;44614;54.356;10.100;2023-02-18T03:00:13;101135.50;;;5.06;100.00
58843;BME280;44614;54.356;10.100;2023-02-18T03:11:13;101135.06;;;4.95;100.00
58843;BME280;44614;54.356;10.100;2023-02-18T03:19:39;101150.56;;;4.94;100.00
58843;BME280;44614;54.356;10.100;2023-02-18T03:22:11;101146.31;;;4.92;100.00
58843;BME280;44614;54.356;10.100;2023-02-18T03:24:43;101145.47;;;4.91;100.00
58843;BME280;44614;54.356;10.100;2023-02-18T03:27:15;101143.78;;;4.90;100.00
58843;BME280;44614;54.356;10.100;2023-02-18T03:29:44;101141.06;;;4.90;100.00
58843;BME280;44614;54.356;10.100;2023-02-18T03:32:12;101139.53;;;4.87;100.00
58843;BME280;44614;54.356;10.100;2023-02-18T03:34:41;101133.59;;;4.84;100.00
58843;BME280;44614;54.356;10.100;2023-02-18T03:37:08;101117.16;;;4.77;100.00
58843;BME280;44614;54.356;10.100;2023-02-18T03:39:35;101127.16;;;4.77;100.00
58843;BME280;44614;54.356;10.100;2023-02-18T03:42:01;101146.91;;;4.79;100.00
58843;BME280;44614;54.356;10.100;2023-02-18T03:44:27;101156.94;;;4.78;100.00
58843;BME280;44614;54.356;10.100;2023-02-18T03:46:54;101117.91;;;4.63;100.00
58843;BME280;44614;54.356;10.100;2023-02-18T03:49:20;101142.34;;;4.71;100.00
58843;BME280;44614;54.356;10.100;2023-02-18T03:51:45;101116.66;;;4.74;100.00
58843;BME280;44614;54.356;10.100;2023-02-18T03:54:11;101119.00;;;4.77;100.00
58843;BME280;44614;54.356;10.100;2023-02-18T03:56:38;101119.69;;;4.79;100.00
58843;BME280;44614;54.356;10.100;2023-02-18T03:59:03;101105.44;;;4.69;100.00
58843;BME280;44614;54.356;10.100;2023-02-18T04:01:29;101109.91;;;4.70;100.00
58843;BME280;44614;54.356;10.100;2023-02-18T04:03:54;101108.66;;;4.72;100.00
58843;BME280;44614;54.356;10.100;2023-02-18T04:06:21;101107.81;;;4.72;100.00
58843;BME280;44614;54.356;10.100;2023-02-18T04:08:47;101117.31;;;4.76;100.00
58843;BME280;44614;54.356;10.100;2023-02-18T04:11:12;101110.38;;;4.73;100.00
58843;BME280;44614;54.356;10.100;2023-02-18T04:13:37;101106.63;;;4.74;100.00
58843;BME280;44614;54.356;10.100;2023-02-18T04:16:03;101102.03;;;4.75;100.00
58843;BME280;44614;54.356;10.100;2023-02-18T04:18:28;101104.56;;;4.76;100.00
58843;BME280;44614;54.356;10.100;2023-02-18T04:20:54;101105.41;;;4.77;100.00
58843;BME280;44614;54.356;10.100;2023-02-18T04:23:19;101089.81;;;4.71;100.00
58843;BME280;44614;54.356;10.100;2023-02-18T04:25:44;101095.41;;;4.77;100.00
58843;BME280;44614;54.356;10.100;2023-02-18T04:28:12;101079.22;;;4.76;100.00
58843;BME280;44614;54.356;10.100;2023-02-18T04:30:38;101095.88;;;4.81;100.00
58843;BME280;44614;54.356;10.100;2023-02-18T04:33:03;101068.06;;;4.71;100.00
58843;BME280;44614;54.356;10.100;2023-02-18T04:35:29;101077.50;;;4.83;100.00
58843;BME280;44614;54.356;10.100;2023-02-18T04:37:54;101068.28;;;4.84;100.00
58843;BME280;44614;54.356;10.100;2023-02-18T04:40:19;101082.88;;;4.91;100.00
58843;BME280;44614;54.356;10.100;2023-02-18T04:42:45;101092.72;;;4.92;100.00
58843;BME280;44614;54.356;10.100;2023-02-18T04:45:10;101083.56;;;4.93;100.00
58843;BME280;44614;54.356;10.100;2023-02-18T04:47:35;101065.50;;;4.92;100.00
58843;BME280;44614;54.356;10.100;2023-02-18T04:50:01;101072.66;;;4.93;100.00
58843;BME280;44614;54.356;10.100;2023-02-18T04:52:26;101063.81;;;4.91;100.00
58843;BME280;44614;54.356;10.100;2023-02-18T04:54:51;101070.25;;;4.98;100.00
58843;BME280;44614;54.356;10.100;2023-02-18T04:57:16;101077.38;;;4.99;100.00
58843;BME280;44614;54.356;10.100;2023-02-18T04:59:42;101069.22;;;4.99;100.00
58843;BME280;44614;54.356;10.100;2023-02-18T05:02:07;101063.13;;;4.97;100.00
58843;BME280;44614;54.356;10.100;2023-02-18T05:04:33;101056.22;;;4.86;100.00
58843;BME280;44614;54.356;10.100;2023-02-18T05:06:58;101056.88;;;4.88;100.00
58843;BME280;44614;54.356;10.100;2023-02-18T05:09:23;101044.13;;;4.89;100.00
58843;BME280;44614;54.356;10.100;2023-02-18T05:11:49;101031.72;;;4.86;100.00
58843;BME280;44614;54.356;10.100;2023-02-18T05:14:14;101052.22;;;4.97;100.00
58843;BME280;44614;54.356;10.100;2023-02-18T05:16:40;101029.84;;;4.87;100.00
58843;BME280;44614;54.356;10.100;2023-02-18T05:19:05;101048.81;;;4.95;100.00
58843;BME280;44614;54.356;10.100;2023-02-18T05:21:30;101048.81;;;4.95;100.00
58843;BME280;44614;54.356;10.100;2023-02-18T05:23:56;101046.44;;;5.00;100.00
58843;BME280;44614;54.356;10.100;2023-02-18T05:26:21;101023.75;;;4.85;100.00
58843;BME280;44614;54.356;10.100;2023-02-18T05:28:48;100996.63;;;4.69;100.00
58843;BME280;44614;54.356;10.100;2023-02-18T05:31:13;101019.69;;;4.81;100.00
58843;BME280;44614;54.356;10.100;2023-02-18T05:33:39;101045.09;;;4.96;100.00
58843;BME280;44614;54.356;10.100;2023-02-18T05:36:04;101031.00;;;4.93;100.00
58843;BME280;44614;54.356;10.100;2023-02-18T05:38:30;101035.22;;;4.95;100.00
58843;BME280;44614;54.356;10.100;2023-02-18T05:40:55;101038.28;;;4.92;100.00
58843;BME280;44614;54.356;10.100;2023-02-18T05:43:20;101024.03;;;4.90;100.00
58843;BME280;44614;54.356;10.100;2023-02-18T05:45:46;101033.25;;;4.89;100.00
58843;BME280;44614;54.356;10.100;2023-02-18T05:48:12;101025.44;;;4.86;100.00
58843;BME280;44614;54.356;10.100;2023-02-18T05:50:37;101025.78;;;4.83;100.00
58843;BME280;44614;54.356;10.100;2023-02-18T05:53:03;101019.50;;;4.82;100.00
58843;BME280;44614;54.356;10.100;2023-02-18T05:55:28;100957.69;;;4.45;100.00
58843;BME280;44614;54.356;10.100;2023-02-18T05:57:53;100996.13;;;4.73;100.00
58843;BME280;44614;54.356;10.100;2023-02-18T06:00:19;101001.56;;;4.73;100.00
58843;BME280;44614;54.356;10.100;2023-02-18T06:02:44;100996.97;;;4.74;100.00
58843;BME280;44614;54.356;10.100;2023-02-18T06:05:10;100984.06;;;4.68;100.00
58843;BME280;44614;54.356;10.100;2023-02-18T06:07:36;100994.59;;;4.71;100.00
58843;BME280;44614;54.356;10.100;2023-02-18T06:10:02;101002.91;;;4.69;100.00
58843;BME280;44614;54.356;10.100;2023-02-18T06:12:27;100966.19;;;4.50;100.00
58843;BME280;44614;54.356;10.100;2023-02-18T06:14:53;100987.16;;;4.64;100.00
58843;BME280;44614;54.356;10.100;2023-02-18T06:17:19;100966.47;;;4.55;100.00
58843;BME280;44614;54.356;10.100;2023-02-18T06:19:47;100982.06;;;4.61;100.00
58843;BME280;44614;54.356;10.100;2023-02-18T06:22:12;100978.19;;;4.56;100.00
58843;BME280;44614;54.356;10.100;2023-02-18T06:24:38;100958.75;;;4.44;100.00
58843;BME280;44614;54.356;10.100;2023-02-18T06:27:06;100983.78;;;4.62;100.00
58843;BME280;44614;54.356;10.100;2023-02-18T06:29:32;100981.59;;;4.58;100.00
58843;BME280;44614;54.356;10.100;2023-02-18T06:31:57;100985.47;;;4.63;100.00
58843;BME280;44614;54.356;10.100;2023-02-18T06:34:23;100995.31;;;4.64;100.00
58843;BME280;44614;54.356;10.100;2023-02-18T06:36:49;101004.31;;;4.65;100.00
58843;BME280;44614;54.356;10.100;2023-02-18T06:39:15;101011.63;;;4.64;100.00
58843;BME280;44614;54.356;10.100;2023-02-18T06:41:40;100991.13;;;4.54;100.00
58843;BME280;44614;54.356;10.100;2023-02-18T06:44:05;100996.88;;;4.59;100.00
58843;BME280;44614;54.356;10.100;2023-02-18T06:46:31;100996.34;;;4.63;100.00
58843;BME280;44614;54.356;10.100;2023-02-18T06:48:56;101000.09;;;4.62;100.00
58843;BME280;44614;54.356;10.100;2023-02-18T06:51:23;100971.78;;;4.49;100.00
58843;BME280;44614;54.356;10.100;2023-02-18T06:53:48;100989.38;;;4.61;100.00
58843;BME280;44614;54.356;10.100;2023-02-18T06:56:13;100983.09;;;4.60;100.00
58843;BME280;44614;54.356;10.100;2023-02-18T06:58:39;100975.28;;;4.57;100.00
58843;BME280;44614;54.356;10.100;2023-02-18T07:01:04;100963.47;;;4.50;100.00
58843;BME280;44614;54.356;10.100;2023-02-18T07:03:29;100969.84;;;4.57;100.00
58843;BME280;44614;54.356;10.100;2023-02-18T07:05:55;100968.16;;;4.56;100.00
58843;BME280;44614;54.356;10.100;2023-02-18T07:08:20;100944.16;;;4.37;100.00
58843;BME280;44614;54.356;10.100;2023-02-18T07:10:46;100975.00;;;4.52;100.00
58843;BME280;44614;54.356;10.100;2023-02-18T07:13:12;100955.66;;;4.47;100.00
58843;BME280;44614;54.356;10.100;2023-02-18T07:15:38;100958.38;;;4.47;100.00
58843;BME280;44614;54.356;10.100;2023-02-18T07:18:04;100943.47;;;4.43;100.00
58843;BME280;44614;54.356;10.100;2023-02-18T07:20:29;100943.47;;;4.43;100.00
58843;BME280;44614;54.356;10.100;2023-02-18T07:22:55;100909.78;;;4.21;100.00
58843;BME280;44614;54.356;10.100;2023-02-18T07:25:22;100952.47;;;4.44;100.00
58843;BME280;44614;54.356;10.100;2023-02-18T07:27:48;100941.09;;;4.40;100.00
58843;BME280;44614;54.356;10.100;2023-02-18T07:30:13;100950.28;;;4.39;100.00
58843;BME280;44614;54.356;10.100;2023-02-18T07:32:39;100935.22;;;4.28;100.00
58843;BME280;44614;54.356;10.100;2023-02-18T07:35:05;100945.19;;;4.36;100.00
58843;BME280;44614;54.356;10.100;2023-02-18T07:37:31;100921.34;;;4.15;100.00
58843;BME280;44614;54.356;10.100;2023-02-18T07:39:57;100945.91;;;4.30;100.00
58843;BME280;44614;54.356;10.100;2023-02-18T07:42:22;100944.56;;;4.26;100.00
58843;BME280;44614;54.356;10.100;2023-02-18T07:44:48;100933.56;;;4.19;100.00
58843;BME280;44614;54.356;10.100;2023-02-18T07:47:15;100934.53;;;4.26;100.00
58843;BME280;44614;54.356;10.100;2023-02-18T07:49:44;100908.31;;;4.10;100.00
58843;BME280;44614;54.356;10.100;2023-02-18T07:52:09;100927.28;;;4.19;100.00
58843;BME280;44614;54.356;10.100;2023-02-18T07:54:35;100928.47;;;4.24;100.00
58843;BME280;44614;54.356;10.100;2023-02-18T07:57:00;100930.63;;;4.29;100.00
58843;BME280;44614;54.356;10.100;2023-02-18T07:59:25;100918.59;;;4.23;100.00
58843;BME280;44614;54.356;10.100;2023-02-18T08:01:51;100921.44;;;4.30;100.00
58843;BME280;44614;54.356;10.100;2023-02-18T08:04:16;100901.38;;;4.31;100.00
58843;BME280;44614;54.356;10.100;2023-02-18T08:06:44;100907.50;;;4.33;100.00
58843;BME280;44614;54.356;10.100;2023-02-18T08:09:11;100914.97;;;4.31;100.00
58843;BME280;44614;54.356;10.100;2023-02-18T08:11:37;100924.66;;;4.33;100.00
58843;BME280;44614;54.356;10.100;2023-02-18T08:14:02;100916.97;;;4.37;100.00
58843;BME280;44614;54.356;10.100;2023-02-18T08:16:28;100848.72;;;4.09;100.00
58843;BME280;44614;54.356;10.100;2023-02-18T08:18:53;100880.53;;;4.23;100.00
58843;BME280;44614;54.356;10.100;2023-02-18T08:21:20;100888.25;;;4.34;100.00
58843;BME280;44614;54.356;10.100;2023-02-18T08:23:45;100885.25;;;4.29;100.00
58843;BME280;44614;54.356;10.100;2023-02-18T08:26:12;100870.88;;;4.21;100.00
58843;BME280;44614;54.356;10.100;2023-02-18T08:28:37;100844.00;;;4.03;100.00
58843;BME280;44614;54.356;10.100;2023-02-18T08:31:03;100810.16;;;3.82;100.00
58843;BME280;44614;54.356;10.100;2023-02-18T08:33:28;100873.41;;;4.22;100.00
58843;BME280;44614;54.356;10.100;2023-02-18T08:35:54;100857.47;;;4.19;100.00
58843;BME280;44614;54.356;10.100;2023-02-18T08:38:21;100857.09;;;4.22;100.00
58843;BME280;44614;54.356;10.100;2023-02-18T08:40:47;100885.47;;;4.20;100.00
58843;BME280;44614;54.356;10.100;2023-02-18T08:43:14;100846.91;;;4.24;100.00
58843;BME280;44614;54.356;10.100;2023-02-18T08:45:41;100825.59;;;4.13;100.00
58843;BME280;44614;54.356;10.100;2023-02-18T08:48:08;100825.03;;;4.18;100.00
58843;BME280;44614;54.356;10.100;2023-02-18T08:50:34;100832.56;;;4.30;100.00
58843;BME280;44614;54.356;10.100;2023-02-18T08:53:00;100842.03;;;4.34;100.00
58843;BME280;44614;54.356;10.100;2023-02-18T08:55:28;100831.91;;;4.28;100.00
58843;BME280;44614;54.356;10.100;2023-02-18T08:57:53;100835.59;;;4.35;100.00
58843;BME280;44614;54.356;10.100;2023-02-18T09:00:19;100839.94;;;4.45;100.00
58843;BME280;44614;54.356;10.100;2023-02-18T09:02:44;100833.78;;;4.51;100.00
58843;BME280;44614;54.356;10.100;2023-02-18T09:05:10;100816.97;;;4.47;100.00
58843;BME280;44614;54.356;10.100;2023-02-18T09:07:36;100782.50;;;4.25;100.00
58843;BME280;44614;54.356;10.100;2023-02-18T09:10:03;100832.16;;;4.56;100.00
58843;BME280;44614;54.356;10.100;2023-02-18T09:12:28;100792.38;;;4.40;100.00
58843;BME280;44614;54.356;10.100;2023-02-18T09:14:54;100822.13;;;4.57;100.00
58843;BME280;44614;54.356;10.100;2023-02-18T09:17:19;100828.91;;;4.61;100.00
58843;BME280;44614;54.356;10.100;2023-02-18T09:19:45;100813.50;;;4.53;100.00
58843;BME280;44614;54.356;10.100;2023-02-18T09:22:10;100830.50;;;4.55;100.00
58843;BME280;44614;54.356;10.100;2023-02-18T09:24:37;100761.91;;;4.07;100.00
58843;BME280;44614;54.356;10.100;2023-02-18T09:27:02;100827.78;;;4.55;100.00
58843;BME280;44614;54.356;10.100;2023-02-18T09:29:28;100822.41;;;4.47;100.00
58843;BME280;44614;54.356;10.100;2023-02-18T09:31:53;100808.34;;;4.44;100.00
58843;BME280;44614;54.356;10.100;2023-02-18T09:34:18;100814.41;;;4.46;100.00
58843;BME280;44614;54.356;10.100;2023-02-18T09:36:44;100806.81;;;4.41;100.00
58843;BME280;44614;54.356;10.100;2023-02-18T09:39:09;100816.00;;;4.40;100.00
58843;BME280;44614;54.356;10.100;2023-02-18T09:41:46;100809.97;;;4.30;100.00
58843;BME280;44614;54.356;10.100;2023-02-18T09:44:17;100806.97;;;4.25;100.00
58843;BME280;44614;54.356;10.100;2023-02-18T09:46:51;100811.38;;;4.26;100.00
58843;BME280;44614;54.356;10.100;2023-02-18T09:49:22;100819.88;;;4.23;100.00
58843;BME280;44614;54.356;10.100;2023-02-18T09:51:49;100795.84;;;4.11;100.00
58843;BME280;44614;54.356;10.100;2023-02-18T09:54:16;100796.03;;;4.10;100.00
58843;BME280;44614;54.356;10.100;2023-02-18T09:56:43;100786.22;;;4.09;100.00
58843;BME280;44614;54.356;10.100;2023-02-18T09:59:20;100767.72;;;4.04;100.00
58843;BME280;44614;54.356;10.100;2023-02-18T10:01:50;100770.75;;;4.09;100.00
58843;BME280;44614;54.356;10.100;2023-02-18T10:04:39;100768.03;;;4.09;100.00
58843;BME280;44614;54.356;10.100;2023-02-18T10:07:18;100767.19;;;4.09;100.00
58843;BME280;44614;54.356;10.100;2023-02-18T10:09:45;100752.56;;;4.10;100.00
58843;BME280;44614;54.356;10.100;2023-02-18T10:12:17;100745.72;;;4.14;100.00
58843;BME280;44614;54.356;10.100;2023-02-18T10:14:53;100725.19;;;4.11;100.00
58843;BME280;44614;54.356;10.100;2023-02-18T10:17:19;100739.28;;;4.30;100.00
58843;BME280;44614;54.356;10.100;2023-02-18T10:19:47;100721.47;;;4.27;100.00
58843;BME280;44614;54.356;10.100;2023-02-18T10:22:13;100721.00;;;4.38;100.00
58843;BME280;44614;54.356;10.100;2023-02-18T10:24:56;100721.44;;;4.50;100.00
58843;BME280;44614;54.356;10.100;2023-02-18T10:29:52;100713.53;;;4.55;100.00
58843;BME280;44614;54.356;10.100;2023-02-18T10:32:20;100702.00;;;4.53;100.00
58843;BME280;44614;54.356;10.100;2023-02-18T10:40:23;100702.28;;;4.44;100.00
58843;BME280;44614;54.356;10.100;2023-02-18T10:42:57;100704.06;;;4.51;100.00
58843;BME280;44614;54.356;10.100;2023-02-18T10:48:05;100711.94;;;4.46;100.00
58843;BME280;44614;54.356;10.100;2023-02-18T10:50:40;100711.28;;;4.44;100.00
58843;BME280;44614;54.356;10.100;2023-02-18T10:53:48;100703.59;;;4.48;100.00
58843;BME280;44614;54.356;10.100;2023-02-18T10:56:07;100685.22;;;4.50;100.00
58843;BME280;44614;54.356;10.100;2023-02-18T10:58:45;100700.41;;;4.59;100.00
58843;BME280;44614;54.356;10.100;2023-02-18T11:01:16;100703.25;;;4.66;100.00
58843;BME280;44614;54.356;10.100;2023-02-18T11:03:45;100693.94;;;4.75;100.00
58843;BME280;44614;54.356;10.100;2023-02-18T11:06:30;100678.91;;;4.79;100.00
58843;BME280;44614;54.356;10.100;2023-02-18T11:08:57;100665.31;;;4.79;100.00
58843;BME280;44614;54.356;10.100;2023-02-18T11:11:29;100634.84;;;4.69;100.00
58843;BME280;44614;54.356;10.100;2023-02-18T11:13:58;100661.66;;;4.86;100.00
58843;BME280;44614;54.356;10.100;2023-02-18T11:16:37;100665.47;;;4.92;100.00
58843;BME280;44614;54.356;10.100;2023-02-18T11:19:02;100650.69;;;4.80;100.00
58843;BME280;44614;54.356;10.100;2023-02-18T11:21:31;100662.88;;;4.84;100.00
58843;BME280;44614;54.356;10.100;2023-02-18T11:24:08;100662.59;;;4.79;100.00
58843;BME280;44614;54.356;10.100;2023-02-18T11:26:35;100653.13;;;4.60;100.00
58843;BME280;44614;54.356;10.100;2023-02-18T11:29:14;100656.16;;;4.50;100.00
58843;BME280;44614;54.356;10.100;2023-02-18T11:31:48;100672.06;;;4.68;100.00
58843;BME280;44614;54.356;10.100;2023-02-18T11:34:18;100660.16;;;4.69;100.00
58843;BME280;44614;54.356;10.100;2023-02-18T11:36:45;100665.91;;;4.74;100.00
58843;BME280;44614;54.356;10.100;2023-02-18T11:39:23;100686.41;;;4.77;100.00
58843;BME280;44614;54.356;10.100;2023-02-18T11:41:57;100679.66;;;4.73;100.00
58843;BME280;44614;54.356;10.100;2023-02-18T11:44:30;100684.63;;;4.69;100.00
58843;BME280;44614;54.356;10.100;2023-02-18T11:49:25;100675.63;;;4.54;100.00
58843;BME280;44614;54.356;10.100;2023-02-18T11:51:50;100654.66;;;4.48;100.00
58843;BME280;44614;54.356;10.100;2023-02-18T11:56:59;100687.09;;;4.49;100.00
58843;BME280;44614;54.356;10.100;2023-02-18T11:59:28;100698.06;;;4.56;100.00
58843;BME280;44614;54.356;10.100;2023-02-18T12:04:43;100733.28;;;4.34;100.00
58843;BME280;44614;54.356;10.100;2023-02-18T12:07:23;100736.94;;;4.27;100.00
58843;BME280;44614;54.356;10.100;2023-02-18T12:09:59;100746.81;;;4.28;100.00
58843;BME280;44614;54.356;10.100;2023-02-18T12:12:27;100750.25;;;4.22;100.00
58843;BME280;44614;54.356;10.100;2023-02-18T12:14:55;100740.56;;;4.19;100.00
58843;BME280;44614;54.356;10.100;2023-02-18T12:20:02;100703.16;;;4.06;100.00
58843;BME280;44614;54.356;10.100;2023-02-18T12:22:45;100665.69;;;4.02;100.00
58843;BME280;44614;54.356;10.100;2023-02-18T12:36:26;100718.25;;;3.71;100.00
58843;BME280;44614;54.356;10.100;2023-02-18T12:39:15;100734.06;;;3.67;100.00
58843;BME280;44614;54.356;10.100;2023-02-18T12:41:51;100712.59;;;3.50;100.00
58843;BME280;44614;54.356;10.100;2023-02-18T12:47:29;100671.44;;;3.15;100.00
58843;BME280;44614;54.356;10.100;2023-02-18T12:50:20;100751.66;;;3.72;100.00
58843;BME280;44614;54.356;10.100;2023-02-18T13:03:26;100770.28;;;3.83;100.00
58843;BME280;44614;54.356;10.100;2023-02-18T13:06:07;100780.66;;;3.79;100.00
58843;BME280;44614;54.356;10.100;2023-02-18T13:11:43;100780.78;;;3.86;100.00
58843;BME280;44614;54.356;10.100;2023-02-18T13:14:28;100781.00;;;3.99;100.00
58843;BME280;44614;54.356;10.100;2023-02-18T13:16:57;100776.53;;;4.06;100.00
58843;BME280;44614;54.356;10.100;2023-02-18T13:19:28;100793.75;;;4.22;100.00
58843;BME280;44614;54.356;10.100;2023-02-18T13:21:59;100783.75;;;4.37;100.00
58843;BME280;44614;54.356;10.100;2023-02-18T13:24:35;100779.53;;;4.49;100.00
58843;BME280;44614;54.356;10.100;2023-02-18T13:35:24;100775.19;;;4.25;100.00
58843;BME280;44614;54.356;10.100;2023-02-18T13:40:36;100777.34;;;4.30;100.00
58843;BME280;44614;54.356;10.100;2023-02-18T13:43:35;100779.16;;;4.37;100.00
58843;BME280;44614;54.356;10.100;2023-02-18T13:48:47;100788.34;;;4.36;100.00
58843;BME280;44614;54.356;10.100;2023-02-18T13:51:44;100799.09;;;4.30;100.00
58843;BME280;44614;54.356;10.100;2023-02-18T13:56:40;100799.88;;;4.38;100.00
58843;BME280;44614;54.356;10.100;2023-02-18T13:59:14;100792.03;;;4.44;100.00
58843;BME280;44614;54.356;10.100;2023-02-18T14:01:47;100788.38;;;4.51;100.00
58843;BME280;44614;54.356;10.100;2023-02-18T14:04:55;100774.31;;;4.48;100.00
58843;BME280;44614;54.356;10.100;2023-02-18T14:10:13;100740.38;;;4.58;100.00
58843;BME280;44614;54.356;10.100;2023-02-18T14:20:50;100762.34;;;4.34;100.00
58843;BME280;44614;54.356;10.100;2023-02-18T14:26:15;100802.19;;;4.27;100.00
58843;BME280;44614;54.356;10.100;2023-02-18T14:28:54;100798.69;;;4.18;100.00
58843;BME280;44614;54.356;10.100;2023-02-18T14:36:35;100823.41;;;4.08;100.00
58843;BME280;44614;54.356;10.100;2023-02-18T14:44:48;100811.97;;;4.36;100.00
58843;BME280;44614;54.356;10.100;2023-02-18T14:50:04;100817.84;;;4.62;100.00
58843;BME280;44614;54.356;10.100;2023-02-18T14:52:47;100833.16;;;4.40;100.00
58843;BME280;44614;54.356;10.100;2023-02-18T14:55:23;100843.16;;;4.25;100.00
58843;BME280;44614;54.356;10.100;2023-02-18T14:58:00;100840.19;;;4.12;100.00